F/V Jeremi Simon — FHAF — position and weather

sailwx.info

Track history (hours):
 
Tides and Currents Weather Stations Pressure Air Temp Water Temp Dewpoint Dewpoint Depression Visibility Wind Speed Wind Dir Waves Ship Positions

F/V Jeremi Simon

Last reported at 2015-Aug-05 01:30 UTC. Time now 2015-Aug-05 02:21 UTC.
Position N 46°47' W 002°30'.

Length 20 m.

Type: Other ship. MMSI: 227415000.

Date/timePositionNaut miles runAvg speedWind from/ knotsBaromVisibWave heightAir tempDewpointWater temp
2015-Aug-05 01:30N 46°47' W 002°30'6 5.3
2015-Aug-05 00:22N 46°45' W 002°21'8 9.6
2015-Aug-04 23:32N 46°43' W 002°10'9 9.0
2015-Aug-04 22:33N 46°41' W 001°58'1 0.9
2015-Aug-04 21:33N 46°42' W 001°57'3 3.1
2015-Aug-04 20:33N 46°41' W 002°01'20 1.0
2015-Aug-04 00:16N 46°46' W 002°30'0 0.4
2015-Aug-03 23:23N 46°47' W 002°30'5 5.1
2015-Aug-03 22:27N 46°46' W 002°23'9 9.4
2015-Aug-03 21:27N 46°43' W 002°10'8 9.0
2015-Aug-03 20:33N 46°41' W 001°58'1 1.5
2015-Aug-03 19:33N 46°42' W 001°57'0 0.0
2015-Aug-03 18:33N 46°42' W 001°56'8 8.1
2015-Aug-03 17:33N 46°43' W 002°08'17 7.0
2015-Aug-03 15:09N 46°49' W 002°31'3 2.1
2015-Aug-03 13:33N 46°51' W 002°35'1 1.3
2015-Aug-03 12:31N 46°50' W 002°36'3 0.5
2015-Aug-03 06:27N 46°49' W 002°32'3 3.2
2015-Aug-03 05:33N 46°47' W 002°29'4 3.8
2015-Aug-03 04:26N 46°46' W 002°23'8 8.2
2015-Aug-03 03:26N 46°44' W 002°11'8 8.8
2015-Aug-03 02:33N 46°41' W 002°01'3 0.5
2015-Aug-02 21:19N 46°42' W 001°57'0 0.0
2015-Aug-02 20:33N 46°42' W 001°57'0 0.0
2015-Aug-02 19:33N 46°42' W 001°57'6 6.5
2015-Aug-02 18:33N 46°43' W 002°06'1110.5
2015-Aug-02 17:33N 46°45' W 002°21'1110.3
2015-Aug-02 16:29N 46°46' W 002°37'1 0.3
2015-Aug-02 12:32N 46°47' W 002°37'2 2.4
2015-Aug-02 11:32N 46°49' W 002°37'1 1.4
2015-Aug-02 10:33N 46°48' W 002°38'4 3.7
2015-Aug-02 09:33N 46°45' W 002°41'1 1.4
2015-Aug-02 08:33N 46°46' W 002°40'1 1.3
2015-Aug-02 07:33N 46°46' W 002°39'1 0.7
2015-Aug-02 06:33N 46°46' W 002°38'4 4.2
2015-Aug-02 05:33N 46°46' W 002°32'9 9.0
2015-Aug-02 04:33N 46°45' W 002°19'9 9.1
2015-Aug-02 03:33N 46°43' W 002°06'6 6.5
2015-Aug-02 02:33N 46°42' W 001°56'0 0.0
2015-Aug-02 01:33N 46°42' W 001°56'0 0.0
2015-Aug-01 16:33N 46°42' W 001°56'0 0.0
2015-Aug-01 10:06N 46°42' W 001°56'0 0.0
2015-Aug-01 09:33N 46°42' W 001°56'0 0.0
2015-Jul-31 16:25N 46°42' W 001°56'0 0.0
2015-Jul-31 07:27N 46°42' W 001°56'0 0.0
2015-Jul-31 06:20N 46°42' W 001°56'0 0.0
2015-Jul-31 05:28N 46°42' W 001°56'0 0.0
2015-Jul-31 04:32N 46°42' W 001°56'0 0.0
2015-Jul-30 17:33N 46°42' W 001°57'3 3.3
2015-Jul-30 16:33N 46°42' W 002°01'12 0.9
2015-Jul-30 03:25N 46°45' W 002°18'8 8.9
2015-Jul-30 02:32N 46°43' W 002°07'7 7.3
2015-Jul-30 01:33N 46°42' W 001°57'0 0.1
2015-Jul-30 00:33N 46°42' W 001°57'0 0.0
2015-Jul-29 23:34N 46°42' W 001°57'0 0.0
2015-Jul-29 22:33N 46°42' W 001°57'0 0.0
2015-Jul-29 21:33N 46°42' W 001°57'0 0.0
2015-Jul-29 20:33N 46°42' W 001°57'0 0.0
2015-Jul-29 19:33N 46°42' W 001°57'0 0.0
2015-Jul-29 18:34N 46°42' W 001°57'0 0.0
2015-Jul-29 17:33N 46°42' W 001°57'7 6.7
2015-Jul-29 16:33N 46°43' W 002°06'17 1.4
2015-Jul-29 04:32N 46°46' W 002°30'9 9.4
2015-Jul-29 03:33N 46°45' W 002°17'9 9.1
2015-Jul-29 02:34N 46°42' W 002°04'5 5.3
2015-Jul-29 01:33N 46°42' W 001°57'0 0.0
2015-Jul-28 16:33N 46°42' W 001°57'0 0.0
2015-Jul-28 15:33N 46°42' W 001°57'11 0.8
2015-Jul-28 02:31N 46°44' W 002°12'8 8.6
2015-Jul-28 01:33N 46°41' W 002°01'3 0.1
2015-Jul-26 09:20N 46°40' W 001°57'810.6
2015-Jul-26 08:33N 46°32' W 001°54'5 4.9
2015-Jul-26 07:33N 46°30' W 001°47'0 0.0
2015-Jul-26 06:33N 46°30' W 001°47'0 0.0
2015-Jul-26 05:33N 46°30' W 001°47'0 0.0
2015-Jul-26 04:33N 46°30' W 001°47'0 0.0
2015-Jul-26 03:33N 46°30' W 001°47'0 0.0
2015-Jul-26 02:33N 46°30' W 001°47'0 0.0
2015-Jul-26 01:33N 46°30' W 001°47'  
Track history (hours):
 
Tides and Currents Weather Stations Pressure Air Temp Water Temp Dewpoint Dewpoint Depression Visibility Wind Speed Wind Dir Waves Ship Positions

F/V Jeremi Simon

Last reported at 2015-Aug-05 01:30 UTC. Time now 2015-Aug-05 02:21 UTC.
Position N 46°47' W 002°30'.

Length 20 m.

Type: Other ship. MMSI: 227415000.

Date/timePositionNaut miles runAvg speedWind from/ knotsBaromVisibWave heightAir tempDewpointWater temp
2015-Aug-05 01:30N 46°47' W 002°30'6 5.3
2015-Aug-05 00:22N 46°45' W 002°21'8 9.6
2015-Aug-04 23:32N 46°43' W 002°10'9 9.0
2015-Aug-04 22:33N 46°41' W 001°58'1 0.9
2015-Aug-04 21:33N 46°42' W 001°57'3 3.1
2015-Aug-04 20:33N 46°41' W 002°01'20 1.0
2015-Aug-04 00:16N 46°46' W 002°30'0 0.4
2015-Aug-03 23:23N 46°47' W 002°30'5 5.1
2015-Aug-03 22:27N 46°46' W 002°23'9 9.4
2015-Aug-03 21:27N 46°43' W 002°10'8 9.0
2015-Aug-03 20:33N 46°41' W 001°58'1 1.5
2015-Aug-03 19:33N 46°42' W 001°57'0 0.0
2015-Aug-03 18:33N 46°42' W 001°56'8 8.1
2015-Aug-03 17:33N 46°43' W 002°08'17 7.0
2015-Aug-03 15:09N 46°49' W 002°31'3 2.1
2015-Aug-03 13:33N 46°51' W 002°35'1 1.3
2015-Aug-03 12:31N 46°50' W 002°36'3 0.5
2015-Aug-03 06:27N 46°49' W 002°32'3 3.2
2015-Aug-03 05:33N 46°47' W 002°29'4 3.8
2015-Aug-03 04:26N 46°46' W 002°23'8 8.2
2015-Aug-03 03:26N 46°44' W 002°11'8 8.8
2015-Aug-03 02:33N 46°41' W 002°01'3 0.5
2015-Aug-02 21:19N 46°42' W 001°57'0 0.0
2015-Aug-02 20:33N 46°42' W 001°57'0 0.0
2015-Aug-02 19:33N 46°42' W 001°57'6 6.5
2015-Aug-02 18:33N 46°43' W 002°06'1110.5
2015-Aug-02 17:33N 46°45' W 002°21'1110.3
2015-Aug-02 16:29N 46°46' W 002°37'1 0.3
2015-Aug-02 12:32N 46°47' W 002°37'2 2.4
2015-Aug-02 11:32N 46°49' W 002°37'1 1.4
2015-Aug-02 10:33N 46°48' W 002°38'4 3.7
2015-Aug-02 09:33N 46°45' W 002°41'1 1.4
2015-Aug-02 08:33N 46°46' W 002°40'1 1.3
2015-Aug-02 07:33N 46°46' W 002°39'1 0.7
2015-Aug-02 06:33N 46°46' W 002°38'4 4.2
2015-Aug-02 05:33N 46°46' W 002°32'9 9.0
2015-Aug-02 04:33N 46°45' W 002°19'9 9.1
2015-Aug-02 03:33N 46°43' W 002°06'6 6.5
2015-Aug-02 02:33N 46°42' W 001°56'0 0.0
2015-Aug-02 01:33N 46°42' W 001°56'0 0.0
2015-Aug-01 16:33N 46°42' W 001°56'0 0.0
2015-Aug-01 10:06N 46°42' W 001°56'0 0.0
2015-Aug-01 09:33N 46°42' W 001°56'0 0.0
2015-Jul-31 16:25N 46°42' W 001°56'0 0.0
2015-Jul-31 07:27N 46°42' W 001°56'0 0.0
2015-Jul-31 06:20N 46°42' W 001°56'0 0.0
2015-Jul-31 05:28N 46°42' W 001°56'0 0.0
2015-Jul-31 04:32N 46°42' W 001°56'0 0.0
2015-Jul-30 17:33N 46°42' W 001°57'3 3.3
2015-Jul-30 16:33N 46°42' W 002°01'12 0.9
2015-Jul-30 03:25N 46°45' W 002°18'8 8.9
2015-Jul-30 02:32N 46°43' W 002°07'7 7.3
2015-Jul-30 01:33N 46°42' W 001°57'0 0.1
2015-Jul-30 00:33N 46°42' W 001°57'0 0.0
2015-Jul-29 23:34N 46°42' W 001°57'0 0.0
2015-Jul-29 22:33N 46°42' W 001°57'0 0.0
2015-Jul-29 21:33N 46°42' W 001°57'0 0.0
2015-Jul-29 20:33N 46°42' W 001°57'0 0.0
2015-Jul-29 19:33N 46°42' W 001°57'0 0.0
2015-Jul-29 18:34N 46°42' W 001°57'0 0.0
2015-Jul-29 17:33N 46°42' W 001°57'7 6.7
2015-Jul-29 16:33N 46°43' W 002°06'17 1.4
2015-Jul-29 04:32N 46°46' W 002°30'9 9.4
2015-Jul-29 03:33N 46°45' W 002°17'9 9.1
2015-Jul-29 02:34N 46°42' W 002°04'5 5.3
2015-Jul-29 01:33N 46°42' W 001°57'0 0.0
2015-Jul-28 16:33N 46°42' W 001°57'0 0.0
2015-Jul-28 15:33N 46°42' W 001°57'11 0.8
2015-Jul-28 02:31N 46°44' W 002°12'8 8.6
2015-Jul-28 01:33N 46°41' W 002°01'3 0.1
2015-Jul-26 09:20N 46°40' W 001°57'810.6
2015-Jul-26 08:33N 46°32' W 001°54'5 4.9
2015-Jul-26 07:33N 46°30' W 001°47'0 0.0
2015-Jul-26 06:33N 46°30' W 001°47'0 0.0
2015-Jul-26 05:33N 46°30' W 001°47'0 0.0
2015-Jul-26 04:33N 46°30' W 001°47'0 0.0
2015-Jul-26 03:33N 46°30' W 001°47'0 0.0
2015-Jul-26 02:33N 46°30' W 001°47'0 0.0
2015-Jul-26 01:33N 46°30' W 001°47'  

Dump ship's entire track history